Strona główna
METAR-TAF:

METAR-TAF

Lotnisko :

Wellington, Nowa Zelandia

Port lotniczy Wellington

Szerokość geograficzna: 41-20S, Długość geograficzna: 174-48E, wysokość: 12 m

Aktualna obserwacja pogody

Raport powstał 35 minut temu, godzina 18:30 UTC
Wiatr 15 kt od północno-północny wschód
Temperatura 15°C
Wilgotność 82%
Ciśnienie 1018 hPa
Widzialność 10 km lub więcej

METAR: NZWN 261830Z AUTO 02015KT 9999 BKN018/// OVC024/// 15/12 Q1018 NOSIG

czas: 07:05 (19:05 UTC)

Prognoza

Raport powstał 1 godzina i 55 minut temu, godzina 17:10 UTC
Prognoza ważna od 26 godzina 18 UTC do 27 godzina 18 UTC
Wiatr 15 kt od północ
Widzialność 10 km lub więcej
Przerywane chmury na wysokości 2500 ft
Stopniowe zmiany
od 27 godzina 00 UTC do 27 godzina 02 UTC
Wiatr 15 kt od północ w porywach dochodzący do 25 kt
Stopniowe zmiany
od 27 godzina 06 UTC do 27 godzina 08 UTC
Wiatr 15 kt od północ

TAF: NZWN 261710Z 2618/2718 36015KT 9999 BKN025 BECMG 2700/2702 36015G25KT BECMG 2706/2708 36015KT

Obserwacja i prognoza pogody dla ponad 4000 lotnisk (raport METAR i TAF).

Dostępne stacje oznaczono żółtymi i czerwonymi punktami na mapie.

Najedź kursorem aby zobaczyć nazwę stacji.

Kliknij aby zobaczyć obserwacje i prognozy pogody.

Aby zmienić mapę: kliknij na zielony przycisk z czarnym krzyżykiem, aby powiększyć; na zielony przycisk z myślnikiem, aby pomniejszyć; na zielone strzałki, aby przejść do map sąsiednich.


METAR-TAF: